Time;durP1;ratioP1;P1;durP2;ratioP2;P2;SDS_P1;SDS_P2;PMS_P1;PMS_P2;Temp;Humidity;BMP_temperature;BMP_pressure;BME280_temperature;BME280_humidity;BME280_pressure;Samples;Min_cycle;Max_cycle;Signal;HPM_P1;HPM_P2
2024/01/05 00:05:00;;;;;;;1.02;1.02;;;;;;;1.75;75.81;100331.81;15726349;28;20067;-54
2024/01/05 00:12:36;;;;;;;0.08;0.08;;;;;;;2.14;74.39;100335.66;15713224;28;20121;-52
2024/01/05 00:20:11;;;;;;;0.00;0.00;;;;;;;2.34;72.94;100346.75;15703197;28;20032;-55
2024/01/05 00:27:45;;;;;;;0.10;0.10;;;;;;;2.41;72.59;100343.25;15746036;28;20037;-53
2024/01/05 00:35:19;;;;;;;0.00;0.00;;;;;;;2.47;72.09;100353.22;15726605;28;20061;-53
2024/01/05 00:42:53;;;;;;;;;;;;;;;2.20;72.29;100353.53;15753502;28;20047;-52
2024/01/05 00:50:27;;;;;;;0.08;0.08;;;;;;;1.89;74.14;100338.28;15746020;28;20300;-52
2024/01/05 00:58:02;;;;;;;0.08;0.08;;;;;;;1.93;74.43;100344.09;15746690;28;20044;-53
2024/01/05 01:05:45;;;;;;;0.00;0.00;;;;;;;2.02;74.48;100340.47;15688244;22;20235;-49
2024/01/05 01:13:19;;;;;;;0.00;0.00;;;;;;;1.48;76.21;100322.34;15675143;28;20055;-47
2024/01/05 01:20:53;;;;;;;0.30;0.30;;;;;;;1.14;76.88;100311.84;15679047;28;20455;-49
2024/01/05 01:28:30;;;;;;;0.10;0.10;;;;;;;1.74;74.69;100326.69;15676560;28;20037;-48
2024/01/05 01:36:04;;;;;;;0.00;0.00;;;;;;;0.95;77.46;100299.69;15676462;28;20139;-51
2024/01/05 01:43:47;;;;;;;0.03;0.03;;;;;;;0.84;78.58;100273.56;15659570;28;20029;-47
2024/01/05 01:51:20;;;;;;;0.00;0.00;;;;;;;1.79;75.74;100304.06;15677160;28;20041;-47
2024/01/05 01:58:57;;;;;;;0.08;0.08;;;;;;;1.15;77.06;100316.13;15677753;28;20041;-50
2024/01/05 02:06:34;;;;;;;0.00;0.00;;;;;;;1.31;76.94;100299.50;15674269;28;20052;-46
2024/01/05 02:14:09;;;;;;;0.32;0.30;;;;;;;1.51;76.67;100319.38;15677595;28;20485;-49
2024/01/05 02:21:47;;;;;;;0.00;0.00;;;;;;;1.28;77.48;100310.38;15656080;28;20044;-50
2024/01/05 02:29:21;;;;;;;0.00;0.00;;;;;;;1.78;75.88;100294.47;15655518;28;20041;-47
2024/01/05 02:36:55;;;;;;;0.05;0.05;;;;;;;1.51;76.57;100276.25;15674341;28;20055;-47
2024/01/05 02:44:30;;;;;;;0.00;0.00;;;;;;;0.90;78.20;100264.19;15654141;28;20069;-50
2024/01/05 02:52:04;;;;;;;0.13;0.13;;;;;;;1.33;76.32;100273.72;15673836;28;20072;-51
2024/01/05 02:59:39;;;;;;;0.65;0.65;;;;;;;0.92;78.04;100270.94;15672794;28;20090;-47
2024/01/05 03:07:13;;;;;;;0.00;0.00;;;;;;;1.35;76.09;100261.16;15666691;28;20523;-51
2024/01/05 03:14:47;;;;;;;;;;;;;;;0.97;78.26;100258.06;15669810;28;20102;-49
2024/01/05 03:22:21;;;;;;;0.00;0.00;;;;;;;1.33;77.81;100247.28;15669716;28;19944;-47
2024/01/05 03:29:56;;;;;;;0.25;0.25;;;;;;;1.04;78.54;100228.38;15672303;28;20445;-48
2024/01/05 03:37:30;;;;;;;0.00;0.00;;;;;;;1.43;77.39;100233.91;15679373;28;20131;-49
2024/01/05 03:45:06;;;;;;;0.00;0.00;;;;;;;1.01;78.27;100237.44;15666137;28;20489;-49
2024/01/05 03:52:40;;;;;;;0.00;0.00;;;;;;;1.50;76.38;100238.38;15684578;28;20264;-48
2024/01/05 04:00:16;;;;;;;0.22;0.20;;;;;;;1.49;76.56;100227.97;15683664;28;20517;-46
2024/01/05 04:07:50;;;;;;;0.10;0.10;;;;;;;1.36;76.97;100222.34;15649705;28;20045;-48
2024/01/05 04:15:27;;;;;;;0.15;0.15;;;;;;;1.04;78.29;100210.72;15683097;28;20048;-48
2024/01/05 04:23:02;;;;;;;0.00;0.00;;;;;;;0.75;79.00;100195.28;15661579;28;20129;-47
2024/01/05 04:30:40;;;;;;;0.10;0.10;;;;;;;0.81;78.39;100201.72;15634027;28;20046;-43
2024/01/05 04:38:14;;;;;;;0.00;0.00;;;;;;;0.79;78.20;100201.03;15642042;28;20107;-47
2024/01/05 04:45:49;;;;;;;;;;;;;;;1.14;77.18;100197.34;15679762;28;20376;-50
2024/01/05 04:53:22;;;;;;;0.10;0.10;;;;;;;0.76;77.45;100170.50;15673329;28;19925;-47
2024/01/05 05:00:58;;;;;;;0.00;0.00;;;;;;;0.79;77.80;100142.94;15680376;28;20041;-50
2024/01/05 05:08:31;;;;;;;0.00;0.00;;;;;;;0.65;78.19;100139.09;15678249;28;20047;-46
2024/01/05 05:16:07;;;;;;;0.00;0.00;;;;;;;0.56;77.18;100095.16;15662775;28;20086;-46
2024/01/05 05:23:40;;;;;;;0.00;0.00;;;;;;;0.93;77.33;100127.31;15662219;28;20124;-47
2024/01/05 05:31:15;;;;;;;0.00;0.00;;;;;;;0.71;77.55;100131.38;15661840;28;20029;-48
2024/01/05 05:38:50;;;;;;;0.00;0.00;;;;;;;0.63;77.52;100126.06;15677780;28;20128;-48
2024/01/05 05:46:26;;;;;;;0.10;0.10;;;;;;;0.67;77.78;100137.97;15654050;28;20055;-46
2024/01/05 05:54:02;;;;;;;0.00;0.00;;;;;;;0.85;76.99;100148.41;15673531;28;20052;-46
2024/01/05 06:01:37;;;;;;;0.03;0.03;;;;;;;0.85;77.07;100152.88;15672669;28;20037;-49
2024/01/05 06:09:13;;;;;;;0.00;0.00;;;;;;;0.39;80.02;100147.94;15672557;28;20029;-48
2024/01/05 06:16:47;;;;;;;0.05;0.05;;;;;;;0.74;79.96;100153.97;15674307;28;20041;-47
2024/01/05 06:24:21;;;;;;;0.00;0.00;;;;;;;0.14;83.01;100164.63;15654323;28;20135;-49
2024/01/05 06:31:56;;;;;;;0.00;0.00;;;;;;;0.05;83.92;100170.84;15676761;28;20047;-49
2024/01/05 06:39:30;;;;;;;0.00;0.00;;;;;;;0.25;84.27;100186.31;15621493;28;20068;-50
2024/01/05 06:47:05;;;;;;;0.32;0.30;;;;;;;0.06;84.48;100183.91;15636570;28;20493;-48
2024/01/05 06:54:39;;;;;;;0.00;0.00;;;;;;;0.00;85.85;100187.16;15638963;28;20499;-47
2024/01/05 07:02:15;;;;;;;0.25;0.25;;;;;;;0.06;86.07;100172.53;15674114;28;20055;-51
2024/01/05 07:09:50;;;;;;;0.00;0.00;;;;;;;0.05;86.49;100162.94;15654516;28;20087;-53
2024/01/05 07:17:25;;;;;;;0.00;0.00;;;;;;;0.04;86.79;100156.81;15669537;28;20063;-50
2024/01/05 07:24:59;;;;;;;0.25;0.25;;;;;;;-0.09;87.15;100138.81;15672622;28;20128;-53
2024/01/05 07:32:34;;;;;;;8.68;2.20;;;;;;;-0.09;87.99;100132.72;15673494;28;20059;-50
2024/01/05 07:40:08;;;;;;;1.98;0.82;;;;;;;-0.36;88.93;100131.88;15673538;28;20515;-48
2024/01/05 07:47:44;;;;;;;0.65;0.65;;;;;;;-0.39;88.06;100140.06;15653956;28;20040;-50
2024/01/05 07:55:17;;;;;;;0.00;0.00;;;;;;;-0.24;87.88;100144.78;15671969;28;20080;-49
2024/01/05 08:02:54;;;;;;;0.00;0.00;;;;;;;-0.14;87.72;100141.09;15670453;28;20055;-53
2024/01/05 08:10:30;;;;;;;0.45;0.45;;;;;;;-0.30;87.85;100156.78;15668152;28;20116;-52
2024/01/05 08:18:05;;;;;;;0.00;0.00;;;;;;;-0.24;87.51;100148.25;15672595;28;20124;-52
2024/01/05 08:25:38;;;;;;;1.35;0.75;;;;;;;-0.22;87.55;100148.94;15681708;28;20048;-50
2024/01/05 08:33:16;;;;;;;0.00;0.00;;;;;;;-0.04;87.22;100144.44;15684812;28;20045;-51
2024/01/05 08:40:52;;;;;;;0.00;0.00;;;;;;;-0.19;88.02;100126.69;15666905;28;20037;-50
2024/01/05 08:48:27;;;;;;;0.00;0.00;;;;;;;-0.07;87.22;100109.63;15664470;28;20041;-51
2024/01/05 08:56:04;;;;;;;0.00;0.00;;;;;;;-0.13;88.03;100119.00;15683051;28;20045;-50
2024/01/05 09:03:41;;;;;;;0.00;0.00;;;;;;;-0.03;87.47;100108.31;15682795;28;20072;-50
2024/01/05 09:11:16;;;;;;;0.00;0.00;;;;;;;0.01;86.85;100107.03;15680361;28;20297;-51
2024/01/05 09:18:52;;;;;;;0.50;0.50;;;;;;;0.08;86.73;100105.41;15660866;28;20489;-49
2024/01/05 09:26:25;;;;;;;0.00;0.00;;;;;;;-0.07;87.63;100093.78;15670389;28;20514;-49
2024/01/05 09:34:02;;;;;;;0.08;0.08;;;;;;;-0.13;88.43;100100.53;15670926;28;20441;-51
2024/01/05 09:41:36;;;;;;;0.00;0.00;;;;;;;0.19;87.26;100099.84;15652437;28;20135;-49
2024/01/05 09:49:14;;;;;;;0.00;0.00;;;;;;;-0.10;87.69;100096.75;15661589;28;20047;-48
2024/01/05 09:56:48;;;;;;;0.00;0.00;;;;;;;0.08;86.39;100065.00;15661649;28;20040;-53
2024/01/05 10:04:25;;;;;;;0.05;0.05;;;;;;;0.08;86.94;100099.31;15659779;28;20041;-53
2024/01/05 10:12:00;;;;;;;0.70;0.70;;;;;;;0.21;86.59;100082.03;15676748;28;20211;-49
2024/01/05 10:19:36;;;;;;;0.03;0.03;;;;;;;0.33;87.24;100079.94;15676643;28;20099;-51
2024/01/05 10:27:11;;;;;;;0.20;0.20;;;;;;;0.09;88.27;100069.28;15676221;28;20107;-50
2024/01/05 10:34:48;;;;;;;0.00;0.00;;;;;;;0.41;87.05;100061.47;15668118;28;20044;-49
2024/01/05 10:42:23;;;;;;;0.00;0.00;;;;;;;0.22;88.45;100051.19;15657471;28;20037;-51
2024/01/05 10:49:58;;;;;;;0.00;0.00;;;;;;;0.31;87.81;100036.22;15672891;28;20123;-49
2024/01/05 10:57:36;;;;;;;0.00;0.00;;;;;;;0.16;88.10;100022.81;15656528;28;20072;-48
2024/01/05 11:05:12;;;;;;;1.23;1.02;;;;;;;0.20;88.21;100014.41;15671709;28;20411;-49
2024/01/05 11:13:07;;;;;;;0.22;0.22;;;;;;;0.35;88.35;99995.31;15652575;28;20032;-48
2024/01/05 11:20:56;;;;;;;0.00;0.00;;;;;;;0.47;87.91;99996.66;15672471;28;20059;-51
2024/01/05 11:28:33;;;;;;;0.00;0.00;;;;;;;0.41;88.54;99973.53;15672904;28;20045;-49
2024/01/05 11:36:09;;;;;;;0.05;0.05;;;;;;;-0.12;89.41;99940.47;15672616;28;20041;-49
2024/01/05 11:43:42;;;;;;;0.15;0.15;;;;;;;0.26;87.78;99954.88;15669161;28;20037;-51
2024/01/05 11:51:18;;;;;;;0.00;0.00;;;;;;;0.13;89.09;99925.50;15667025;28;20120;-50
2024/01/05 11:58:51;;;;;;;0.20;0.20;;;;;;;0.22;88.05;99958.81;15658497;28;20041;-47
2024/01/05 12:06:26;;;;;;;0.00;0.00;;;;;;;0.58;87.67;99950.63;15681584;28;20140;-52
2024/01/05 12:13:59;;;;;;;0.68;0.10;;;;;;;0.36;87.59;99975.84;15686481;28;20037;-51
2024/01/05 12:21:37;;;;;;;0.00;0.00;;;;;;;0.64;87.34;99950.78;15683122;28;20124;-49
2024/01/05 12:29:11;;;;;;;1.65;1.40;;;;;;;0.57;86.78;99920.75;15681829;28;20106;-48
2024/01/05 12:36:46;;;;;;;0.00;0.00;;;;;;;0.37;87.96;99907.03;15670100;28;20084;-48
2024/01/05 12:44:20;;;;;;;0.00;0.00;;;;;;;0.75;87.28;99929.31;15661866;28;20029;-50
2024/01/05 12:51:57;;;;;;;0.00;0.00;;;;;;;0.38;88.06;99929.81;15663539;28;20684;-50
2024/01/05 12:59:32;;;;;;;1.27;0.40;;;;;;;0.61;88.12;99955.56;15681994;28;20124;-49
2024/01/05 13:07:08;;;;;;;0.00;0.00;;;;;;;0.73;86.53;99962.16;15679921;28;20048;-49
2024/01/05 13:14:42;;;;;;;0.22;0.22;;;;;;;0.83;86.04;99951.41;15675603;28;20112;-48
2024/01/05 13:22:17;;;;;;;0.05;0.05;;;;;;;0.70;87.27;99930.78;15673425;28;20072;-47
2024/01/05 13:29:51;;;;;;;0.00;0.00;;;;;;;0.60;87.77;99944.16;15680099;28;20044;-49
2024/01/05 13:37:26;;;;;;;0.00;0.00;;;;;;;0.61;87.76;99930.00;15660793;28;20449;-48
2024/01/05 13:45:04;;;;;;;0.10;0.10;;;;;;;0.65;88.08;99925.19;15674990;28;20044;-45
2024/01/05 13:52:39;;;;;;;0.00;0.00;;;;;;;0.30;88.58;99916.63;15675948;28;20037;-46
2024/01/05 14:00:13;;;;;;;0.20;0.20;;;;;;;0.44;88.24;99930.97;15667232;28;20137;-45
2024/01/05 14:07:48;;;;;;;0.00;0.00;;;;;;;0.84;87.60;99918.72;15676787;28;20049;-47
2024/01/05 14:15:21;;;;;;;0.88;0.65;;;;;;;0.65;87.57;99923.41;15677267;28;20480;-50
2024/01/05 14:22:56;;;;;;;;;;;;;;;0.65;87.73;99915.47;15676761;28;20136;-47
2024/01/05 14:30:29;;;;;;;0.00;0.00;;;;;;;0.61;88.19;99921.25;15677742;28;20015;-48
2024/01/05 14:38:05;;;;;;;0.10;0.10;;;;;;;0.66;87.95;99929.50;15676617;28;20036;-44
2024/01/05 14:45:39;;;;;;;0.00;0.00;;;;;;;0.38;88.08;99927.19;15674354;28;20107;-49
2024/01/05 14:53:13;;;;;;;0.00;0.00;;;;;;;0.47;88.39;99917.47;15676052;28;20037;-45
2024/01/05 15:00:48;;;;;;;0.00;0.00;;;;;;;0.61;88.78;99921.25;15668501;28;20398;-46
2024/01/05 15:08:23;;;;;;;0.57;0.55;;;;;;;0.73;87.85;99923.38;15673637;28;20106;-48
2024/01/05 15:15:58;;;;;;;0.00;0.00;;;;;;;0.95;86.92;99928.97;15652798;28;20048;-44
2024/01/05 15:23:33;;;;;;;0.63;0.63;;;;;;;0.52;88.94;99924.88;15673842;28;20048;-49
2024/01/05 15:31:07;;;;;;;0.30;0.30;;;;;;;0.79;87.91;99913.13;15671471;28;20052;-46
2024/01/05 15:38:42;;;;;;;0.00;0.00;;;;;;;0.82;87.74;99887.19;15656942;28;20210;-46
2024/01/05 15:46:17;;;;;;;0.00;0.00;;;;;;;0.93;87.61;99892.16;15653824;28;20084;-49
2024/01/05 15:53:54;;;;;;;0.00;0.00;;;;;;;0.98;88.27;99903.03;15656086;28;20120;-46
2024/01/05 16:01:28;;;;;;;0.30;0.30;;;;;;;0.64;89.45;99905.88;15655105;28;20041;-46
2024/01/05 16:09:03;;;;;;;0.40;0.40;;;;;;;0.58;89.43;99903.09;15672698;28;20049;-47
2024/01/05 16:16:39;;;;;;;1.02;0.57;;;;;;;0.99;87.64;99903.84;15667742;28;20406;-46
2024/01/05 16:24:13;;;;;;;0.00;0.00;;;;;;;0.78;88.26;99914.94;15593925;28;20064;-45
2024/01/05 16:31:47;;;;;;;0.45;0.43;;;;;;;0.75;89.27;99908.19;15659266;28;20033;-47
2024/01/05 16:39:22;;;;;;;1.60;1.50;;;;;;;0.92;87.79;99922.19;15668927;28;20482;-48
2024/01/05 16:46:56;;;;;;;1.30;0.85;;;;;;;0.76;88.46;99932.78;15669130;28;20528;-48
2024/01/05 16:54:31;;;;;;;0.25;0.25;;;;;;;0.89;88.46;99924.34;15666316;28;20099;-45
2024/01/05 17:02:05;;;;;;;0.00;0.00;;;;;;;0.79;89.75;99927.16;15681972;28;20044;-50
2024/01/05 17:09:46;;;;;;;0.08;0.08;;;;;;;1.06;88.19;99930.41;15663552;28;20032;-50
2024/01/05 17:17:19;;;;;;;0.00;0.00;;;;;;;0.68;88.80;99923.03;15682459;28;20649;-47
2024/01/05 17:24:54;;;;;;;0.10;0.10;;;;;;;0.94;88.91;99927.31;15681186;28;20047;-49
2024/01/05 17:32:28;;;;;;;0.35;0.35;;;;;;;0.85;89.40;99946.81;15680479;28;20107;-48
2024/01/05 17:40:03;;;;;;;;;;;;;;;1.12;87.91;99949.09;15679378;28;20517;-50
2024/01/05 17:47:36;;;;;;;0.10;0.10;;;;;;;1.15;88.31;99946.09;15676060;28;19924;-48
2024/01/05 17:55:11;;;;;;;;;;;;;;;1.04;87.86;99950.91;15679398;28;20052;-53
2024/01/05 18:02:44;;;;;;;0.82;0.82;;;;;;;1.02;88.14;99951.06;15679904;28;19924;-49
2024/01/05 18:10:19;;;;;;;;;;;;;;;1.10;88.62;99944.94;15678746;28;20056;-51
2024/01/05 18:17:53;;;;;;;0.80;0.75;;;;;;;1.00;89.30;99958.34;15643959;28;19929;-48
2024/01/05 18:25:28;;;;;;;0.13;0.13;;;;;;;1.15;88.80;99961.94;15676459;28;20486;-51
2024/01/05 18:33:01;;;;;;;0.73;0.65;;;;;;;1.04;89.13;99956.19;15674448;28;20051;-45
2024/01/05 18:40:36;;;;;;;0.00;0.00;;;;;;;1.07;88.98;99948.75;15659584;28;20041;-46
2024/01/05 18:48:11;;;;;;;0.30;0.30;;;;;;;1.15;88.15;99956.66;15656476;28;20040;-48
2024/01/05 18:55:46;;;;;;;0.30;0.30;;;;;;;1.28;87.94;99958.78;15673470;28;20452;-47
2024/01/05 19:03:21;;;;;;;1.98;1.88;;;;;;;1.21;89.19;99963.09;15671653;28;20044;-50
2024/01/05 19:10:56;;;;;;;0.50;0.50;;;;;;;1.50;88.42;99963.34;15673264;28;20441;-51
2024/01/05 19:18:30;;;;;;;0.45;0.45;;;;;;;1.04;89.29;99977.34;15673645;28;20077;-49
2024/01/05 19:26:06;;;;;;;0.15;0.15;;;;;;;0.65;89.66;99941.03;15674309;28;20075;-49
2024/01/05 19:33:40;;;;;;;0.50;0.50;;;;;;;0.91;90.17;99962.81;15661469;28;20052;-51
2024/01/05 19:41:16;;;;;;;0.00;0.00;;;;;;;0.74;90.72;99975.19;15659414;28;20125;-49
2024/01/05 19:48:49;;;;;;;1.35;1.02;;;;;;;0.77;90.29;99977.50;15645770;28;20064;-51
2024/01/05 19:56:25;;;;;;;0.75;0.73;;;;;;;0.98;91.08;99969.09;15654353;28;20049;-50
2024/01/05 20:03:58;;;;;;;0.10;0.10;;;;;;;0.83;91.31;99967.28;15672456;28;20048;-49
2024/01/05 20:11:34;;;;;;;1.58;1.40;;;;;;;1.02;90.39;99959.00;15652568;28;20045;-50
2024/01/05 20:19:07;;;;;;;3.47;1.25;;;;;;;0.86;91.26;99967.78;15654972;28;20140;-48
2024/01/05 20:26:43;;;;;;;0.00;0.00;;;;;;;1.05;89.42;99966.59;15680855;28;20041;-49
2024/01/05 20:34:17;;;;;;;0.98;0.57;;;;;;;1.30;88.93;99969.19;15682121;28;20051;-48
2024/01/05 20:41:51;;;;;;;0.00;0.00;;;;;;;1.01;90.94;99970.56;15680945;28;20068;-52
2024/01/05 20:49:25;;;;;;;0.40;0.40;;;;;;;1.11;89.81;99963.28;15679822;28;20049;-51
2024/01/05 20:57:02;;;;;;;1.15;1.13;;;;;;;1.57;88.09;99963.47;15682197;28;20140;-50
2024/01/05 21:04:35;;;;;;;0.60;0.57;;;;;;;1.32;89.37;99973.31;15678593;28;20099;-49
2024/01/05 21:12:14;;;;;;;0.10;0.10;;;;;;;0.96;90.88;99986.91;15676357;28;20044;-50
2024/01/05 21:19:47;;;;;;;2.10;1.90;;;;;;;1.32;89.24;99975.97;15658179;28;20115;-49
2024/01/05 21:27:22;;;;;;;1.80;0.93;;;;;;;1.22;89.35;99991.19;15658403;28;20045;-52
2024/01/05 21:34:56;;;;;;;0.47;0.47;;;;;;;1.07;90.43;99979.63;15661288;28;20470;-48
2024/01/05 21:42:30;;;;;;;;;;;;;;;1.10;89.62;99993.34;15661551;28;20114;-50
2024/01/05 21:50:05;;;;;;;2.03;1.00;;;;;;;1.10;90.31;99987.22;15676125;28;20011;-50
2024/01/05 21:57:43;;;;;;;0.45;0.40;;;;;;;1.26;90.92;99993.31;15675242;28;20040;-50
2024/01/05 22:05:20;;;;;;;0.00;0.00;;;;;;;0.97;90.66;100012.34;15677224;28;20119;-49
2024/01/05 22:12:54;;;;;;;1.13;1.13;;;;;;;1.23;89.97;100025.38;15675743;28;20041;-49
2024/01/05 22:20:29;;;;;;;0.13;0.13;;;;;;;1.41;89.57;100021.72;15675752;28;20040;-48
2024/01/05 22:28:05;;;;;;;1.55;1.45;;;;;;;1.60;88.90;100021.34;15673264;28;20106;-49
2024/01/05 22:35:38;;;;;;;0.85;0.80;;;;;;;1.19;89.32;100028.53;15675436;28;20065;-48
2024/01/05 22:43:13;;;;;;;0.80;0.65;;;;;;;1.14;90.34;100030.84;15674932;28;20107;-50
2024/01/05 22:50:47;;;;;;;1.67;1.58;;;;;;;1.43;88.25;100036.41;15674750;28;20037;-50
2024/01/05 22:58:22;;;;;;;1.88;1.75;;;;;;;1.35;89.30;100035.59;15674370;28;20045;-53
2024/01/05 23:05:58;;;;;;;0.40;0.40;;;;;;;1.39;88.78;100032.44;15670138;28;20144;-50
2024/01/05 23:13:39;;;;;;;1.27;1.17;;;;;;;1.13;90.02;100024.72;15653858;28;20033;-49
2024/01/05 23:21:17;;;;;;;0.10;0.10;;;;;;;1.13;90.00;100045.06;15678263;28;20041;-49
2024/01/05 23:28:53;;;;;;;0.60;0.60;;;;;;;1.01;90.93;100050.66;15672623;28;20049;-50
2024/01/05 23:36:28;;;;;;;1.52;1.30;;;;;;;1.23;89.84;100051.81;15670140;28;20395;-50
2024/01/05 23:44:03;;;;;;;2.65;1.52;;;;;;;1.14;89.75;100041.41;15669068;28;20041;-50
2024/01/05 23:51:37;;;;;;;0.30;0.30;;;;;;;1.06;90.18;100046.69;15652666;28;20163;-50
2024/01/05 23:59:12;;;;;;;;;;;;;;;1.18;90.25;100053.31;15668508;28;20529;-51
